Etusivu
METAR-TAF:

METAR-TAF

Lentoasemat :

Vamdrup

Kolding, Tanska

Leveyspiiri: 55-26N, Pituuspiiri: 009-20E, korkeus merenpinnasta: 44 m

Tämänhetkinen sää

Tämä raportti tehtiin 29 minuuttia sitten, kello 10.50 UTC
Tuuli 11 kn lännestä/lounaasta, vaihdellen etelän/lounaan ja lännen välillä
Lämpötila 18°C
Kosteus 59%
Ilmanpaine 1014 hPa
Näkyvyys 10 km tai enemmän
Hajanaisia pilviä 2500 ft:n korkeudessa

METAR: EKVD 181050Z 25011KT 210V280 9999 SCT025 18/10 Q1014

Aika: 13:19 (11:19 UTC)

Sääennuste

Tämä raportti tehtiin 2 tuntia ja 24 minuuttia sitten, kello 08.55 UTC
Ennuste voimassa 18. päivästä klo 09 UTC - 18. päivään klo 16 UTC
Tuuli 12 kn lännestä/lounaasta
Näkyvyys 10 km tai enemmän
Hajanaisia pilviä 2500 ft:n korkeudessa

TAF: EKVD 180855Z 1809/1816 25012KT 9999 SCT025

Säähavainnot ja -ennusteet yli 4000 lentoasemalta (METAR- ja TAF-raportit).

Käytössä olevat sääasemat on merkitty karttaan keltaisilla ja punaisilla pisteillä.

Aseta hiiri pisteen päälle nähdäksesi sääaseman nimen.

Klikkaa sitten nähdäksesi säähavainnot ja -ennusteet.

Kartan vaihtaminen: klikkaa mustalla rastilla varustettuja vihreitä pisteitä, niin voit zoomata sisään; viivalla varustettua vihreää pistettä, niin voit zoomata ulos tai vihreitä nuolia, niin pääset viereisille kartoille.


METAR-TAF: